Time;durP1;ratioP1;P1;durP2;ratioP2;P2;SDS_P1;SDS_P2;PMS_P1;PMS_P2;Temp;Humidity;BMP_temperature;BMP_pressure;BME280_temperature;BME280_humidity;BME280_pressure;Samples;Min_cycle;Max_cycle;Signal;HPM_P1;HPM_P2
2023/01/02 00:01:42;;;;;;;66.95;40.63;;;;;;;7.75;100.00;101920.03;5004730;28;20031;-77
2023/01/02 00:04:07;;;;;;;54.00;36.60;;;;;;;7.17;100.00;101825.69;5006292;28;20069;-77
2023/01/02 00:06:34;;;;;;;63.63;39.88;;;;;;;7.97;100.00;101943.50;5003777;28;20103;-77
2023/01/02 00:09:00;;;;;;;49.88;39.88;;;;;;;7.25;100.00;101819.88;5002370;28;20050;-77
2023/01/02 00:11:26;;;;;;;56.78;40.40;;;;;;;7.19;100.00;101833.59;5005392;28;20136;-76
2023/01/02 00:13:52;;;;;;;58.75;41.20;;;;;;;7.89;100.00;101967.56;5005652;28;20042;-77
2023/01/02 00:16:17;;;;;;;48.13;36.55;;;;;;;6.92;100.00;101784.75;5007521;28;20513;-77
2023/01/02 00:18:43;;;;;;;56.08;39.50;;;;;;;7.69;100.00;101944.22;5013338;28;20095;-77
2023/01/02 00:21:08;;;;;;;49.08;38.60;;;;;;;7.47;100.00;101939.03;5007273;28;20477;-76
2023/01/02 00:23:34;;;;;;;49.47;39.30;;;;;;;6.95;100.00;101842.28;5010255;28;20034;-76
2023/01/02 00:25:59;;;;;;;49.72;39.63;;;;;;;7.77;100.00;101966.31;5004326;28;20164;-77
2023/01/02 00:28:25;;;;;;;50.42;38.42;;;;;;;6.95;100.00;101838.75;5009235;28;20672;-77
2023/01/02 00:30:51;;;;;;;48.13;38.97;;;;;;;6.79;100.00;101816.44;5010059;28;20065;-76
2023/01/02 00:33:16;;;;;;;49.88;38.80;;;;;;;6.91;100.00;101835.16;5007104;28;20057;-76
2023/01/02 00:35:42;;;;;;;53.63;38.53;;;;;;;7.45;100.00;101925.06;5001347;28;20610;-76
2023/01/02 00:38:08;;;;;;;52.10;37.85;;;;;;;7.50;100.00;101927.00;5009436;28;20452;-76
2023/01/02 00:40:33;;;;;;;55.92;38.63;;;;;;;7.65;100.00;101947.53;5013508;28;20111;-78
2023/01/02 00:42:59;;;;;;;52.10;37.17;;;;;;;6.50;100.00;101768.38;5008948;28;20046;-77
2023/01/02 00:45:25;;;;;;;53.03;36.63;;;;;;;6.81;100.00;101842.56;5003663;28;20061;-75
2023/01/02 00:47:50;;;;;;;54.75;38.08;;;;;;;7.00;100.00;101871.16;5004459;28;20045;-75
2023/01/02 00:50:16;;;;;;;52.00;38.67;;;;;;;7.61;100.00;101950.91;5006372;28;20537;-75
2023/01/02 00:52:41;;;;;;;55.72;41.50;;;;;;;7.83;100.00;101952.56;5008903;28;20155;-74
2023/01/02 00:55:07;;;;;;;61.67;46.92;;;;;;;7.75;100.00;101954.91;5008439;28;20147;-77
2023/01/02 00:57:32;;;;;;;45.92;38.90;;;;;;;7.80;100.00;101955.06;5008893;28;20049;-77
2023/01/02 00:59:58;;;;;;;50.50;38.67;;;;;;;7.83;100.00;101960.41;5004738;28;20045;-76
2023/01/02 01:02:23;;;;;;;49.53;36.83;;;;;;;7.59;100.00;101921.22;4998640;28;20516;-76
2023/01/02 01:04:49;;;;;;;52.90;39.60;;;;;;;7.52;100.00;101900.94;5000316;28;20393;-78
2023/01/02 01:07:15;;;;;;;58.03;38.88;;;;;;;7.65;100.00;101937.09;5004148;28;20042;-77
2023/01/02 01:09:40;;;;;;;50.53;36.85;;;;;;;7.05;100.00;101809.59;5010976;28;20049;-75
2023/01/02 01:12:06;;;;;;;48.17;37.47;;;;;;;6.75;100.00;101781.50;5006096;28;20541;-75
2023/01/02 01:14:31;;;;;;;39.42;31.40;;;;;;;6.94;100.00;101801.34;5005660;28;20167;-75
2023/01/02 01:16:57;;;;;;;51.53;35.75;;;;;;;6.90;100.00;101782.91;5008312;28;20449;-75
2023/01/02 01:19:22;;;;;;;50.00;33.75;;;;;;;7.57;100.00;101874.13;5004868;28;20050;-77
2023/01/02 01:21:48;;;;;;;42.13;33.78;;;;;;;7.53;100.00;101887.03;5012271;28;20120;-77
2023/01/02 01:24:14;;;;;;;42.60;34.13;;;;;;;7.75;100.00;101913.09;5005357;28;20116;-77
2023/01/02 01:26:40;;;;;;;39.53;33.08;;;;;;;7.95;100.00;101919.00;5005884;28;20065;-77
2023/01/02 01:29:05;;;;;;;45.03;35.85;;;;;;;7.80;100.00;101915.88;5007983;28;20485;-77
2023/01/02 01:31:30;;;;;;;47.92;34.97;;;;;;;7.09;100.00;101777.53;5000247;28;20030;-77
2023/01/02 01:33:56;;;;;;;39.35;28.95;;;;;;;7.58;100.00;101835.84;4997800;28;20506;-76
2023/01/02 01:36:23;;;;;;;43.45;30.75;;;;;;;7.98;100.00;101911.31;5002074;28;20052;-77
2023/01/02 01:38:48;;;;;;;40.33;31.02;;;;;;;7.16;100.00;101757.75;5005139;28;20042;-76
2023/01/02 01:41:16;;;;;;;46.47;32.58;;;;;;;7.92;100.00;101910.19;5007118;28;20080;-76
2023/01/02 01:43:51;;;;;;;42.35;30.33;;;;;;;7.36;100.00;101795.03;5006632;28;20129;-77
2023/01/02 01:46:20;;;;;;;39.58;30.75;;;;;;;7.96;100.00;101904.22;5003571;28;20090;-76
2023/01/02 01:48:48;;;;;;;42.40;29.25;;;;;;;7.13;100.00;101757.66;5006254;28;20057;-75
2023/01/02 01:51:16;;;;;;;46.00;30.88;;;;;;;6.97;100.00;101719.69;5007609;28;20046;-78
2023/01/02 01:53:44;;;;;;;40.47;31.05;;;;;;;7.50;100.00;101792.91;5014940;28;20103;-75
2023/01/02 01:56:12;;;;;;;35.63;27.90;;;;;;;7.86;100.00;101834.19;5000157;28;20034;-75
2023/01/02 01:58:42;;;;;;;42.65;31.42;;;;;;;8.24;100.00;101890.34;5007881;28;20112;-76
2023/01/02 02:01:11;;;;;;;35.38;26.65;;;;;;;7.71;100.00;101825.00;5000575;28;20140;-75
2023/01/02 02:03:39;;;;;;;35.17;27.48;;;;;;;7.59;100.00;101769.72;5002606;28;20042;-75
2023/01/02 02:06:06;;;;;;;34.67;27.73;;;;;;;8.07;100.00;101832.28;5011168;28;20046;-75
2023/01/02 02:08:40;;;;;;;33.15;28.08;;;;;;;8.28;100.00;101876.56;5006046;28;20084;-75
2023/01/02 02:11:06;;;;;;;36.58;27.80;;;;;;;8.06;100.00;101840.09;5008421;28;20034;-76
2023/01/02 02:13:33;;;;;;;37.85;27.95;;;;;;;8.18;100.00;101861.41;5005440;28;20038;-78
2023/01/02 02:16:16;;;;;;;37.97;27.05;;;;;;;7.50;100.00;101746.78;5010307;28;20074;-77
2023/01/02 02:19:00;;;;;;;38.42;26.50;;;;;;;8.27;100.00;101885.25;5009859;28;20112;-74
2023/01/02 02:21:54;;;;;;;39.55;27.48;;;;;;;8.39;100.00;101880.41;5003070;28;20621;-75
2023/01/02 02:24:22;;;;;;;36.22;27.15;;;;;;;8.33;100.00;101889.78;5029817;28;20068;-76
2023/01/02 02:26:48;;;;;;;36.53;25.33;;;;;;;8.38;100.00;101876.03;5006922;28;20045;-74
2023/01/02 02:30:04;;;;;;;39.47;27.98;;;;;;;8.22;100.00;101879.88;5010250;28;20075;-75
2023/01/02 02:32:57;;;;;;;40.85;29.52;;;;;;;7.63;100.00;101762.84;4966775;28;20053;-76
2023/01/02 02:35:23;;;;;;;42.80;27.83;;;;;;;8.37;100.00;101881.19;4946142;28;20554;-76
2023/01/02 02:37:57;;;;;;;36.83;26.50;;;;;;;8.38;100.00;101891.72;4994886;28;20053;-75
2023/01/02 02:40:49;;;;;;;41.67;28.25;;;;;;;7.94;100.00;101807.47;5004709;28;20052;-75
2023/01/02 02:43:24;;;;;;;45.92;27.85;;;;;;;8.36;100.00;101892.53;4997289;28;20496;-76
2023/01/02 02:46:15;;;;;;;39.10;26.50;;;;;;;8.18;100.00;101864.91;5012782;28;20049;-75
2023/01/02 02:48:44;;;;;;;34.45;27.70;;;;;;;8.18;100.00;101882.31;5004084;28;20073;-75
2023/01/02 02:51:52;;;;;;;34.95;27.58;;;;;;;8.18;100.00;101877.97;5009018;28;20041;-75
2023/01/02 02:54:29;;;;;;;36.50;27.48;;;;;;;8.24;100.00;101874.66;4994910;28;20054;-75
2023/01/02 02:56:55;;;;;;;38.08;27.90;;;;;;;7.90;100.00;101856.97;5003708;28;20110;-76
2023/01/02 02:59:22;;;;;;;37.60;27.23;;;;;;;7.10;100.00;101726.25;5012110;28;20564;-75
2023/01/02 03:01:47;;;;;;;30.13;25.77;;;;;;;8.05;100.00;101852.25;5014597;28;20038;-77
2023/01/02 03:04:21;;;;;;;37.80;26.33;;;;;;;7.56;100.00;101759.16;5002706;28;20399;-76
2023/01/02 03:07:20;;;;;;;33.17;27.80;;;;;;;7.58;100.00;101758.34;5009516;28;20417;-76
2023/01/02 03:10:34;;;;;;;33.28;26.63;;;;;;;8.24;100.00;101886.03;5009515;28;20053;-77
2023/01/02 03:13:24;;;;;;;44.85;27.67;;;;;;;8.32;100.00;101890.63;4926856;28;20051;-77
2023/01/02 03:15:58;;;;;;;35.70;26.15;;;;;;;7.50;100.00;101762.44;4944839;28;20122;-76
2023/01/02 03:18:52;;;;;;;36.40;27.60;;;;;;;8.21;100.00;101887.66;4996768;28;20088;-75
2023/01/02 03:21:26;;;;;;;40.15;28.83;;;;;;;8.31;100.00;101901.91;5005775;28;20057;-75
2023/01/02 03:23:56;;;;;;;45.75;30.08;;;;;;;7.97;100.00;101849.38;5011506;28;20121;-76
2023/01/02 03:26:27;;;;;;;34.65;29.35;;;;;;;7.59;100.00;101767.09;5002114;28;20045;-76
2023/01/02 03:28:57;;;;;;;42.55;28.95;;;;;;;7.62;100.00;101751.53;5004705;28;20084;-75
2023/01/02 03:31:26;;;;;;;47.50;32.58;;;;;;;7.73;100.00;101778.03;5012978;28;20049;-76
2023/01/02 03:34:00;;;;;;;56.70;34.63;;;;;;;8.31;100.00;101884.53;5000464;28;20516;-75
2023/01/02 03:36:30;;;;;;;49.42;32.35;;;;;;;8.40;100.00;101887.44;5006438;28;20049;-74
2023/01/02 03:39:06;;;;;;;40.38;33.15;;;;;;;7.56;100.00;101748.69;5003173;28;20042;-77
2023/01/02 03:41:40;;;;;;;44.17;32.35;;;;;;;7.43;100.00;101725.63;5006745;28;20077;-75
2023/01/02 03:44:08;;;;;;;43.40;32.20;;;;;;;7.61;100.00;101755.00;5003177;28;20760;-77
2023/01/02 03:46:49;;;;;;;44.03;30.95;;;;;;;8.16;100.00;101866.56;5002075;28;20034;-75
2023/01/02 03:49:17;;;;;;;40.65;30.25;;;;;;;8.05;100.00;101854.88;5002187;28;20071;-75
2023/01/02 03:51:43;;;;;;;53.90;32.83;;;;;;;7.48;100.00;101756.28;5005741;28;20112;-76
2023/01/02 03:54:10;;;;;;;39.38;29.25;;;;;;;7.37;100.00;101723.69;5005852;28;20497;-76
2023/01/02 03:56:35;;;;;;;40.88;30.70;;;;;;;8.22;100.00;101887.72;5002329;28;20144;-76
2023/01/02 03:59:09;;;;;;;45.83;32.67;;;;;;;8.22;100.00;101897.28;4999647;28;20488;-76
2023/01/02 04:02:02;;;;;;;45.53;32.85;;;;;;;8.24;100.00;101878.19;5005720;28;20030;-76
2023/01/02 04:04:43;;;;;;;47.00;32.40;;;;;;;8.17;100.00;101884.06;5003005;28;20077;-77
2023/01/02 04:07:15;;;;;;;42.15;32.13;;;;;;;8.05;100.00;101847.03;5009748;28;20477;-75
2023/01/02 04:09:43;;;;;;;43.50;29.50;;;;;;;8.23;100.00;101886.84;5009268;28;20046;-77
2023/01/02 04:12:16;;;;;;;42.75;31.25;;;;;;;7.53;100.00;101738.16;4999590;28;20041;-76
2023/01/02 04:14:54;;;;;;;40.95;32.05;;;;;;;7.55;100.00;101757.38;5012893;28;20073;-77
2023/01/02 04:17:22;;;;;;;41.67;30.48;;;;;;;8.13;100.00;101849.91;5006057;28;20113;-75
2023/01/02 04:19:56;;;;;;;39.78;29.30;;;;;;;8.13;100.00;101837.72;5008294;28;20040;-76
2023/01/02 04:22:48;;;;;;;42.05;28.05;;;;;;;7.40;100.00;101748.19;5011601;28;20045;-78
2023/01/02 04:25:15;;;;;;;40.28;31.25;;;;;;;7.61;100.00;101774.16;5001576;28;20136;-76
2023/01/02 04:27:58;;;;;;;40.83;29.73;;;;;;;7.39;100.00;101753.34;5008156;28;20115;-76
2023/01/02 04:30:26;;;;;;;41.72;28.88;;;;;;;8.02;100.00;101867.84;5001053;28;20058;-76
2023/01/02 04:32:53;;;;;;;38.30;28.02;;;;;;;8.08;100.00;101882.84;5005623;28;20117;-77
2023/01/02 04:35:22;;;;;;;40.70;30.95;;;;;;;8.08;100.00;101869.75;5010835;28;20135;-76
2023/01/02 04:37:48;;;;;;;44.85;28.88;;;;;;;7.69;100.00;101795.31;5010049;28;20038;-76
2023/01/02 04:40:27;;;;;;;41.42;28.60;;;;;;;8.37;100.00;101889.94;5009105;28;20042;-78
2023/01/02 04:42:53;;;;;;;38.35;27.67;;;;;;;8.18;100.00;101864.91;5008715;28;20050;-77
2023/01/02 04:45:19;;;;;;;40.53;30.45;;;;;;;7.37;100.00;101758.53;5011466;28;20120;-78
2023/01/02 04:47:47;;;;;;;38.72;27.27;;;;;;;7.32;100.00;101754.84;5003045;28;20486;-76
2023/01/02 04:50:12;;;;;;;45.97;29.55;;;;;;;7.55;100.00;101791.34;5011015;28;20038;-76
2023/01/02 04:52:38;;;;;;;39.45;26.85;;;;;;;8.11;100.00;101901.25;5011225;28;20083;-76
2023/01/02 04:55:07;;;;;;;34.65;28.48;;;;;;;7.16;100.00;101742.09;5008850;28;20103;-76
2023/01/02 04:57:32;;;;;;;34.58;27.50;;;;;;;8.14;100.00;101894.38;5013694;28;20042;-75
2023/01/02 04:59:58;;;;;;;44.33;29.17;;;;;;;8.06;100.00;101905.44;5014102;28;20155;-75
2023/01/02 05:02:23;;;;;;;36.50;29.40;;;;;;;7.18;100.00;101764.81;5008627;28;20046;-75
2023/01/02 05:04:49;;;;;;;50.08;31.98;;;;;;;7.60;100.00;101858.56;5007568;28;20041;-74
2023/01/02 05:07:14;;;;;;;46.72;32.63;;;;;;;7.13;100.00;101791.59;5008897;28;20046;-77
2023/01/02 05:09:40;;;;;;;42.17;31.80;;;;;;;7.74;100.00;101903.47;5008705;28;20053;-77
2023/01/02 05:12:05;;;;;;;46.67;30.67;;;;;;;7.68;100.00;101908.50;5006479;28;20049;-77
2023/01/02 05:14:31;;;;;;;39.63;29.83;;;;;;;7.19;100.00;101818.81;5006306;28;20409;-78
2023/01/02 05:16:56;;;;;;;42.75;32.55;;;;;;;7.28;100.00;101801.69;5000427;28;20583;-76
2023/01/02 05:19:22;;;;;;;44.97;31.00;;;;;;;7.87;100.00;101896.09;5006890;28;20468;-78
2023/01/02 05:24:32;;;;;;;41.83;30.17;;;;;;;7.39;100.00;101858.69;4998014;28;20121;-75
2023/01/02 05:26:57;;;;;;;43.28;31.55;;;;;;;7.56;100.00;101898.50;5005082;28;20054;-77
2023/01/02 05:29:22;;;;;;;43.50;33.53;;;;;;;6.85;100.00;101781.84;5008851;28;20053;-76
2023/01/02 05:31:48;;;;;;;45.00;32.38;;;;;;;7.57;100.00;101915.94;4999867;28;20127;-77
2023/01/02 05:34:14;;;;;;;43.22;32.17;;;;;;;7.10;100.00;101839.34;5006983;28;20046;-77
2023/01/02 05:36:40;;;;;;;41.92;30.30;;;;;;;7.65;100.00;101923.16;5002874;28;20053;-77
2023/01/02 05:39:13;;;;;;;44.42;32.63;;;;;;;7.58;100.00;101911.59;5001725;28;20149;-76
2023/01/02 05:41:39;;;;;;;43.80;32.53;;;;;;;6.90;100.00;101770.75;5005778;28;20129;-77
2023/01/02 05:44:09;;;;;;;42.60;31.20;;;;;;;6.86;100.00;101742.78;5005018;28;20081;-76
2023/01/02 05:46:36;;;;;;;47.75;33.03;;;;;;;6.81;100.00;101746.94;5009588;28;20549;-77
2023/01/02 05:49:06;;;;;;;47.92;32.58;;;;;;;7.22;100.00;101793.66;5009225;28;20192;-77
2023/01/02 05:51:32;;;;;;;44.67;32.53;;;;;;;7.14;100.00;101777.69;5007600;28;20034;-77
2023/01/02 05:53:58;;;;;;;39.97;31.15;;;;;;;7.90;100.00;101915.34;4999601;28;20054;-78
2023/01/02 05:56:25;;;;;;;45.28;31.70;;;;;;;7.88;100.00;101908.31;5003785;28;20046;-76
2023/01/02 05:58:51;;;;;;;47.50;31.05;;;;;;;7.70;100.00;101878.09;5008769;28;20026;-75
2023/01/02 06:01:19;;;;;;;48.53;31.58;;;;;;;7.14;100.00;101773.38;5001983;28;20058;-77
2023/01/02 06:03:46;;;;;;;45.72;33.08;;;;;;;7.14;100.00;101772.47;5001231;28;20627;-77
2023/01/02 06:06:12;;;;;;;41.55;33.17;;;;;;;7.81;100.00;101902.84;5008416;28;20041;-77
2023/01/02 06:08:38;;;;;;;43.72;33.28;;;;;;;7.68;100.00;101868.38;5007226;28;20053;-76
2023/01/02 06:11:04;;;;;;;43.10;32.92;;;;;;;7.75;100.00;101899.13;5002200;28;20037;-75
2023/01/02 06:13:31;;;;;;;44.60;35.35;;;;;;;7.86;100.00;101905.63;5010278;28;20253;-76
2023/01/02 06:15:58;;;;;;;46.10;33.35;;;;;;;7.03;100.00;101792.09;5012313;28;20494;-77
2023/01/02 06:18:24;;;;;;;47.95;32.88;;;;;;;6.95;100.00;101761.41;5004094;28;20057;-79
2023/01/02 06:20:50;;;;;;;52.63;31.17;;;;;;;7.73;100.00;101914.75;5009259;28;20413;-79
2023/01/02 06:23:16;;;;;;;46.55;34.17;;;;;;;7.60;100.00;101907.31;5009450;28;20061;-80
2023/01/02 06:25:41;;;;;;;41.55;33.10;;;;;;;6.89;100.00;101797.69;5007748;28;20370;-79
2023/01/02 06:28:07;;;;;;;41.95;33.83;;;;;;;7.67;100.00;101916.25;5009177;28;20394;-79
2023/01/02 06:30:32;;;;;;;47.53;34.28;;;;;;;7.56;100.00;101874.97;5002880;28;20054;-78
2023/01/02 06:32:58;;;;;;;46.17;33.55;;;;;;;7.27;100.00;101811.25;4994285;28;20495;-80
2023/01/02 06:35:23;;;;;;;46.25;35.53;;;;;;;7.33;100.00;101831.50;5005806;28;20053;-77
2023/01/02 06:37:49;;;;;;;46.95;32.70;;;;;;;7.95;100.00;101907.69;5013110;28;20034;-77
2023/01/02 06:40:14;;;;;;;48.38;33.47;;;;;;;7.79;100.00;101870.53;4994741;28;20495;-79
2023/01/02 06:42:43;;;;;;;47.75;33.53;;;;;;;7.23;100.00;101791.06;5003607;28;20219;-79
2023/01/02 06:45:08;;;;;;;46.15;34.05;;;;;;;7.75;100.00;101884.38;5013031;28;20394;-77
2023/01/02 06:47:34;;;;;;;39.50;30.52;;;;;;;6.66;100.00;101663.78;5003386;28;20060;-75
2023/01/02 06:49:59;;;;;;;42.13;30.73;;;;;;;8.19;100.00;101905.91;4997010;28;20036;-77
2023/01/02 06:52:27;;;;;;;42.97;31.40;;;;;;;8.25;100.00;101902.63;5010876;28;20525;-76
2023/01/02 06:54:52;;;;;;;46.90;32.60;;;;;;;8.30;100.00;101903.66;5007568;28;20074;-76
2023/01/02 06:57:18;;;;;;;46.45;35.50;;;;;;;7.68;100.00;101795.25;5008635;28;20520;-76
2023/01/02 06:59:43;;;;;;;42.65;33.28;;;;;;;7.99;100.00;101863.41;5006676;28;20393;-76
2023/01/02 07:02:11;;;;;;;44.22;32.80;;;;;;;7.51;100.00;101765.94;5006903;28;20033;-75
2023/01/02 07:04:36;;;;;;;49.35;33.63;;;;;;;7.90;100.00;101851.75;5002348;28;20065;-76
2023/01/02 07:07:02;;;;;;;45.08;33.17;;;;;;;8.28;100.00;101899.22;5010124;28;20083;-76
2023/01/02 07:09:27;;;;;;;47.88;34.05;;;;;;;8.39;100.00;101913.53;5007661;28;20058;-75
2023/01/02 07:11:53;;;;;;;45.35;31.27;;;;;;;7.16;100.00;101692.50;5005825;28;20455;-75
2023/01/02 07:14:18;;;;;;;43.70;32.45;;;;;;;8.19;100.00;101874.53;5006175;28;20053;-75
2023/01/02 07:16:44;;;;;;;43.25;33.67;;;;;;;8.34;100.00;101905.53;5004500;28;20120;-76
2023/01/02 07:19:09;;;;;;;51.45;36.55;;;;;;;8.54;100.00;101914.06;5007362;28;20797;-76
2023/01/02 07:21:35;;;;;;;46.35;35.05;;;;;;;8.61;100.00;101916.03;5010761;28;20467;-77
2023/01/02 07:24:00;;;;;;;44.67;35.10;;;;;;;8.08;100.00;101823.63;5005301;28;20473;-77
2023/01/02 07:26:25;;;;;;;47.22;35.33;;;;;;;7.94;100.00;101788.31;5009893;28;20046;-77
2023/01/02 07:28:51;;;;;;;46.40;34.15;;;;;;;8.58;100.00;101883.66;5003553;28;20030;-77
2023/01/02 07:31:18;;;;;;;52.95;36.65;;;;;;;8.67;100.00;101910.13;5007928;28;20815;-77
2023/01/02 07:33:44;;;;;;;45.67;36.38;;;;;;;8.69;100.00;101915.41;5004118;28;20136;-77
2023/01/02 07:36:16;;;;;;;48.47;37.40;;;;;;;8.79;100.00;101914.84;5011420;28;20037;-77
2023/01/02 07:38:42;;;;;;;42.63;35.08;;;;;;;8.91;100.00;101912.59;5006967;28;20042;-75
2023/01/02 07:41:14;;;;;;;51.85;36.10;;;;;;;8.96;100.00;101918.88;5005483;28;20469;-79
2023/01/02 07:43:40;;;;;;;48.97;34.50;;;;;;;8.76;100.00;101880.75;5002607;28;20073;-75
2023/01/02 07:46:05;;;;;;;57.65;36.35;;;;;;;8.31;100.00;101793.00;5005525;28;20576;-75
2023/01/02 07:48:31;;;;;;;54.00;37.08;;;;;;;9.05;100.00;101884.25;5018357;28;20119;-76
2023/01/02 07:51:03;;;;;;;55.35;36.70;;;;;;;8.54;100.00;101811.13;5012486;28;20042;-77
2023/01/02 07:53:30;;;;;;;49.33;36.80;;;;;;;9.12;100.00;101906.25;5005496;28;20072;-75
2023/01/02 07:55:57;;;;;;;57.33;37.65;;;;;;;9.27;100.00;101925.94;5011927;28;20033;-76
2023/01/02 07:58:23;;;;;;;48.10;34.33;;;;;;;9.38;100.00;101915.75;5013161;28;20049;-77
2023/01/02 08:00:48;;;;;;;49.67;37.15;;;;;;;9.39;100.00;101919.25;5009471;28;20045;-76
2023/01/02 08:03:14;;;;;;;52.45;39.40;;;;;;;9.39;100.00;101916.66;4995953;28;20034;-76
2023/01/02 08:05:39;;;;;;;53.95;36.70;;;;;;;8.84;100.00;101796.38;5012989;28;20506;-73
2023/01/02 08:08:05;;;;;;;48.95;37.65;;;;;;;9.45;100.00;101916.84;5006361;28;20041;-75
2023/01/02 08:10:31;;;;;;;48.35;38.10;;;;;;;9.63;100.00;101922.59;5009170;28;20115;-76
2023/01/02 08:12:56;;;;;;;51.90;35.72;;;;;;;9.39;100.00;101895.69;5002150;28;20470;-75
2023/01/02 08:15:23;;;;;;;50.67;37.95;;;;;;;9.49;100.00;101906.50;5004668;28;20144;-75
2023/01/02 08:17:49;;;;;;;48.55;37.65;;;;;;;9.56;100.00;101901.44;5000779;28;20058;-74
2023/01/02 08:20:14;;;;;;;58.58;37.30;;;;;;;9.65;100.00;101909.56;5001089;28;20037;-77
2023/01/02 08:22:40;;;;;;;46.17;36.17;;;;;;;8.94;100.00;101800.13;5003855;28;20497;-76
2023/01/02 08:25:06;;;;;;;52.38;37.00;;;;;;;9.42;100.00;101860.00;5007574;28;20604;-77
2023/01/02 08:27:32;;;;;;;52.38;40.42;;;;;;;9.73;100.00;101935.09;5002361;28;20086;-79
2023/01/02 08:29:57;;;;;;;44.30;35.28;;;;;;;9.04;100.00;101769.88;5008187;28;20062;-80
2023/01/02 08:32:23;;;;;;;51.15;36.38;;;;;;;9.05;100.00;101798.72;5003053;28;20191;-80
2023/01/02 08:34:49;;;;;;;51.40;39.95;;;;;;;9.03;100.00;101797.78;5007778;28;20034;-79
2023/01/02 08:37:14;;;;;;;53.88;36.17;;;;;;;9.94;100.00;101926.06;5005673;28;20071;-78
2023/01/02 08:39:40;;;;;;;50.90;36.13;;;;;;;9.90;100.00;101917.25;5012699;28;20050;-79
2023/01/02 08:42:05;;;;;;;40.35;34.10;;;;;;;10.10;100.00;101924.75;5010881;28;20071;-79
2023/01/02 08:44:33;;;;;;;46.30;35.33;;;;;;;9.82;100.00;101889.91;5009014;28;20037;-78
2023/01/02 08:46:58;;;;;;;44.60;33.78;;;;;;;9.47;100.00;101799.88;5009404;28;20187;-75
2023/01/02 08:49:24;;;;;;;51.75;36.50;;;;;;;10.21;100.00;101911.91;5006975;28;20548;-74
2023/01/02 08:51:49;;;;;;;44.88;34.20;;;;;;;10.10;100.00;101886.28;5005466;28;20478;-75
2023/01/02 08:54:15;;;;;;;42.90;34.28;;;;;;;9.78;100.00;101824.25;5010252;28;20041;-75
2023/01/02 08:56:41;;;;;;;43.88;32.63;;;;;;;10.31;100.00;101898.22;4997973;28;20104;-74
2023/01/02 08:59:10;;;;;;;42.88;32.80;;;;;;;10.05;100.00;101887.03;4998636;28;20042;-76
2023/01/02 09:01:36;;;;;;;41.97;34.05;;;;;;;9.79;100.00;101784.13;5007617;28;20062;-75
2023/01/02 09:04:03;;;;;;;40.33;29.02;;;;;;;10.04;100.00;101814.44;5002716;28;20049;-74
2023/01/02 09:06:30;;;;;;;37.40;27.20;;;;;;;10.05;100.00;101790.88;5012821;28;20548;-74
2023/01/02 09:08:57;;;;;;;36.28;28.30;;;;;;;10.15;100.00;101781.50;5002167;28;20058;-76
2023/01/02 09:11:29;;;;;;;34.65;25.63;;;;;;;10.75;100.00;101886.16;4999063;28;20057;-76
2023/01/02 09:13:56;;;;;;;45.00;31.80;;;;;;;10.90;100.00;101893.47;5001029;28;20100;-75
2023/01/02 09:16:22;;;;;;;38.05;27.02;;;;;;;11.08;100.00;101905.28;5002684;28;20041;-75
2023/01/02 09:18:48;;;;;;;39.55;26.77;;;;;;;11.21;100.00;101891.53;5009571;28;20854;-75
2023/01/02 09:21:14;;;;;;;35.45;25.63;;;;;;;11.11;100.00;101860.66;5004542;28;20050;-77
2023/01/02 09:23:40;;;;;;;42.45;29.77;;;;;;;11.38;100.00;101886.66;4997888;28;20045;-75
2023/01/02 09:26:06;;;;;;;36.72;26.85;;;;;;;10.76;100.00;101776.78;5001103;28;20041;-74
2023/01/02 09:28:34;;;;;;;37.40;27.83;;;;;;;11.37;100.00;101877.84;5003215;28;20121;-74
2023/01/02 09:31:04;;;;;;;33.30;27.23;;;;;;;10.93;100.00;101783.28;5007853;28;20053;-76
2023/01/02 09:33:30;;;;;;;36.42;29.08;;;;;;;11.52;100.00;101881.63;5000570;28;20045;-82
2023/01/02 09:35:55;;;;;;;34.55;28.83;;;;;;;11.66;100.00;101872.31;5004009;28;20049;-80
2023/01/02 09:38:20;;;;;;;38.30;27.15;;;;;;;11.14;100.00;101768.78;5005664;28;20049;-84
2023/01/02 09:40:52;;;;;;;40.22;28.38;;;;;;;11.39;100.00;101801.69;5002224;28;20025;-82
2023/01/02 09:43:28;;;;;;;34.05;28.50;;;;;;;11.54;100.00;101823.00;5004498;28;20552;-85
2023/01/02 09:45:57;;;;;;;39.03;29.58;;;;;;;11.87;100.00;101847.22;5009409;28;20050;-82
2023/01/02 09:48:28;;;;;;;38.35;28.35;;;;;;;11.36;100.00;101709.66;5005179;28;20053;-82
2023/01/02 09:50:54;;;;;;;32.72;26.60;;;;;;;12.26;100.00;101833.91;5002432;28;20050;-81
2023/01/02 09:53:19;;;;;;;37.92;29.10;;;;;;;12.32;100.00;101818.22;5002806;28;20416;-81
2023/01/02 09:56:00;;;;;;;36.33;27.13;;;;;;;12.45;100.00;101812.28;5003652;28;20073;-85
2023/01/02 09:58:47;;;;;;;36.95;28.55;;;;;;;12.60;100.00;101832.69;5001195;28;20042;-82
2023/01/02 10:01:37;;;;;;;35.05;27.85;;;;;;;12.78;100.00;101816.28;4996958;28;20077;-77
2023/01/02 10:04:33;;;;;;;35.55;27.15;;;;;;;12.87;100.00;101807.56;4993248;28;20049;-77
2023/01/02 10:07:03;;;;;;;37.30;28.10;;;;;;;12.99;100.00;101809.47;5001091;28;20153;-75
2023/01/02 10:10:12;;;;;;;35.17;26.88;;;;;;;12.42;100.00;101696.41;4990035;28;20050;-76
2023/01/02 10:12:54;;;;;;;33.97;24.85;;;;;;;12.37;100.00;101692.81;4990684;28;20061;-82
2023/01/02 10:15:26;;;;;;;38.08;30.55;;;;;;;12.56;100.00;101785.22;5002017;28;20398;-81
2023/01/02 10:17:57;;;;;;;40.42;26.05;;;;;;;12.66;100.00;101760.78;4999995;28;20048;-79
2023/01/02 10:20:34;;;;;;;31.27;26.90;;;;;;;12.22;100.00;101653.13;4996344;28;20154;-78
2023/01/02 10:23:09;;;;;;;32.88;25.58;;;;;;;12.72;100.00;101694.16;5003752;28;20038;-76
2023/01/02 10:25:53;;;;;;;42.25;25.65;;;;;;;13.52;100.00;101786.41;5001202;28;20041;-78
2023/01/02 10:28:43;;;;;;;32.20;24.70;;;;;;;12.97;100.00;101650.50;5002911;28;20058;-76
2023/01/02 10:31:18;;;;;;;33.67;22.88;;;;;;;13.61;100.00;101759.25;4996141;28;20105;-81
2023/01/02 10:34:00;;;;;;;36.22;22.02;;;;;;;13.60;100.00;101739.03;4996498;28;20042;-76
2023/01/02 10:36:30;;;;;;;33.08;22.00;;;;;;;13.31;100.00;101672.81;4999503;28;20056;-79
2023/01/02 10:39:02;;;;;;;30.15;22.67;;;;;;;13.49;100.00;101654.53;5003552;28;20060;-77
2023/01/02 10:41:30;;;;;;;33.45;20.88;;;;;;;14.26;100.00;101773.84;4997205;28;20060;-81
2023/01/02 10:44:31;;;;;;;29.38;20.05;;;;;;;14.33;100.00;101754.53;5012198;28;20757;-78
2023/01/02 10:47:01;;;;;;;33.40;20.70;;;;;;;14.00;100.00;101717.31;4984537;28;20254;-80
2023/01/02 10:49:39;;;;;;;24.48;18.45;;;;;;;14.66;100.00;101733.59;5001183;28;20053;-78
2023/01/02 10:52:22;;;;;;;28.75;17.65;;;;;;;14.39;100.00;101655.94;5005771;28;20045;-79
2023/01/02 10:54:55;;;;;;;22.42;18.05;;;;;;;15.30;100.00;101754.06;4997836;28;20054;-80
2023/01/02 10:57:37;;;;;;;24.85;18.45;;;;;;;15.08;100.00;101644.75;5005407;28;20064;-76
2023/01/02 11:00:05;;;;;;;28.13;19.88;;;;;;;14.69;100.00;101583.00;4997155;28;20046;-79
2023/01/02 11:02:39;;;;;;;26.15;18.42;;;;;;;15.59;100.00;101608.56;5002948;28;20412;-76
2023/01/02 11:05:15;;;;;;;26.83;17.83;;;;;;;16.04;100.00;101720.59;5001312;28;20428;-77
2023/01/02 11:07:47;;;;;;;21.92;18.35;;;;;;;16.16;100.00;101667.63;4994338;28;20120;-77
2023/01/02 11:10:35;;;;;;;25.33;17.15;;;;;;;16.57;100.00;101723.97;5000046;28;20049;-77
2023/01/02 11:13:12;;;;;;;27.80;17.95;;;;;;;16.57;100.00;101703.66;4993355;28;20057;-76
2023/01/02 11:15:59;;;;;;;20.50;16.27;;;;;;;16.51;100.00;101686.94;4996357;28;20140;-78
2023/01/02 11:18:30;;;;;;;31.60;16.80;;;;;;;16.09;100.00;101687.06;4997708;28;20643;-76
2023/01/02 11:21:07;;;;;;;24.17;16.83;;;;;;;16.12;100.00;101702.03;5006752;28;20037;-77
2023/01/02 11:23:37;;;;;;;28.48;17.27;;;;;;;16.16;100.00;101695.88;5004133;28;20050;-77